Terminal Aerodrome Forecast
Issued by NWS

Home | Current Version | Previous Version | Text Only | Print | Product List | Glossary On
Versions: 1 2 3 4 5 6 7 8 9 10 11 12 13 14 15 16 17 18 19 20 21 22 23 24 25 26 27 28 29 30 31
428
FTAK31 PANC 041132
TAFADQ
TAF
PADQ 041132Z 0412/0512 VRB06KT P6SM -RA SCT015 BKN025 OVC110
      TEMPO 0412/0416 BKN010
     FM041600 VRB04KT P6SM -SHRA BKN025 BKN050
     FM050300 04007KT P6SM -SHRA BKN020 BKN060=

USA.gov is the U.S. government's official web portal to all federal, state and local government web resources and services.